createdAt,value
2023-08-15T00:00:47.628Z,20.89
2023-08-15T00:01:47.630Z,20.88
2023-08-15T00:02:47.681Z,20.86
2023-08-15T00:03:47.666Z,20.85
2023-08-15T00:04:47.587Z,20.86
2023-08-15T00:05:47.597Z,20.88
2023-08-15T00:06:47.559Z,20.89
2023-08-15T00:07:47.577Z,20.86
2023-08-15T00:08:47.527Z,20.83
2023-08-15T00:09:47.525Z,20.82
2023-08-15T00:10:47.537Z,20.80
2023-08-15T00:11:47.515Z,20.77
2023-08-15T00:12:47.543Z,20.74
2023-08-15T00:13:47.502Z,20.73
2023-08-15T00:14:47.471Z,20.68
2023-08-15T00:15:47.469Z,20.64
2023-08-15T00:16:47.575Z,20.61
2023-08-15T00:17:47.462Z,20.58
2023-08-15T00:18:47.440Z,20.58
2023-08-15T00:19:47.416Z,20.55
2023-08-15T00:20:47.411Z,20.53
2023-08-15T00:21:47.416Z,20.50
2023-08-15T00:22:47.381Z,20.48
2023-08-15T00:23:47.380Z,20.46
2023-08-15T00:24:47.364Z,20.44
2023-08-15T00:25:47.373Z,20.39
2023-08-15T00:26:47.400Z,20.37
2023-08-15T00:27:47.324Z,20.34
2023-08-15T00:28:47.324Z,20.33
2023-08-15T00:29:47.397Z,20.29
2023-08-15T00:30:47.318Z,20.30
2023-08-15T00:31:47.336Z,20.27
2023-08-15T00:32:47.346Z,20.23
2023-08-15T00:33:47.260Z,20.22
2023-08-15T00:34:47.249Z,20.17
2023-08-15T00:35:47.263Z,20.15
2023-08-15T00:36:47.242Z,20.14
2023-08-15T00:37:47.271Z,20.12
2023-08-15T00:38:47.218Z,20.11
2023-08-15T00:39:47.203Z,20.08
2023-08-15T00:40:47.269Z,20.07
2023-08-15T00:41:47.180Z,20.07
2023-08-15T00:42:47.174Z,20.07
2023-08-15T00:43:47.185Z,20.09
2023-08-15T00:44:47.215Z,20.09
2023-08-15T00:45:47.148Z,20.09
2023-08-15T00:46:47.176Z,20.09
2023-08-15T00:47:47.141Z,20.08
2023-08-15T00:48:47.139Z,20.07
2023-08-15T00:49:47.128Z,20.07
2023-08-15T00:50:47.090Z,20.04
2023-08-15T00:51:49.911Z,20.02
2023-08-15T00:52:47.076Z,19.97
2023-08-15T00:53:47.063Z,19.94
2023-08-15T00:54:47.058Z,19.92
2023-08-15T00:55:47.027Z,19.90
2023-08-15T00:56:47.032Z,19.86
2023-08-15T00:57:47.010Z,19.84
2023-08-15T00:58:47.018Z,19.79
2023-08-15T00:59:47.035Z,19.81
2023-08-15T01:00:46.985Z,19.79
2023-08-15T01:01:47.021Z,19.77
2023-08-15T01:02:47.026Z,19.79
2023-08-15T01:03:47.268Z,19.78
2023-08-15T01:04:47.014Z,19.75
2023-08-15T01:05:46.918Z,19.72
2023-08-15T01:06:46.927Z,19.70
2023-08-15T01:07:46.897Z,19.64
2023-08-15T01:08:46.892Z,19.62
2023-08-15T01:09:46.891Z,19.60
2023-08-15T01:10:46.876Z,19.56
2023-08-15T01:11:46.881Z,19.53
2023-08-15T01:12:46.862Z,19.52
2023-08-15T01:13:46.833Z,19.49
2023-08-15T01:14:46.832Z,19.47
2023-08-15T01:15:46.834Z,19.44
2023-08-15T01:16:46.859Z,19.41
2023-08-15T01:17:46.843Z,19.39
2023-08-15T01:18:46.784Z,19.38
2023-08-15T01:19:46.772Z,19.38
2023-08-15T01:20:46.785Z,19.34
2023-08-15T01:21:46.769Z,19.32
2023-08-15T01:22:46.746Z,19.31
2023-08-15T01:23:46.717Z,19.30
2023-08-15T01:24:46.726Z,19.30
2023-08-15T01:25:46.717Z,19.30
2023-08-15T01:26:46.686Z,19.27
2023-08-15T01:27:46.850Z,19.30
2023-08-15T01:28:46.683Z,19.30
2023-08-15T01:29:46.672Z,19.26
2023-08-15T01:30:46.668Z,19.26
2023-08-15T01:31:46.674Z,19.23
2023-08-15T01:32:46.663Z,19.23
2023-08-15T01:33:46.633Z,19.20
2023-08-15T01:34:46.611Z,19.19
2023-08-15T01:35:46.711Z,19.16
2023-08-15T01:36:46.612Z,19.17
2023-08-15T01:37:46.585Z,19.17
2023-08-15T01:38:46.586Z,19.19
2023-08-15T01:39:46.650Z,19.19
2023-08-15T01:40:46.538Z,19.20
2023-08-15T01:41:46.556Z,19.16
2023-08-15T01:42:46.530Z,19.15
2023-08-15T01:43:46.513Z,19.13
2023-08-15T01:44:46.502Z,19.15
2023-08-15T01:45:46.504Z,19.13
2023-08-15T01:46:46.523Z,19.15
2023-08-15T01:47:46.509Z,19.16
2023-08-15T01:48:46.458Z,19.15
2023-08-15T01:49:46.460Z,19.12
2023-08-15T01:50:46.455Z,19.12
2023-08-15T01:51:46.490Z,19.12
2023-08-15T01:52:46.417Z,19.09
2023-08-15T01:53:46.409Z,19.08
2023-08-15T01:54:46.398Z,19.05
2023-08-15T01:55:46.387Z,19.05
2023-08-15T01:56:46.430Z,19.04
2023-08-15T01:57:46.371Z,19.00
2023-08-15T01:58:46.351Z,18.98
2023-08-15T01:59:46.353Z,18.98
2023-08-15T02:00:46.347Z,18.97
2023-08-15T02:01:46.463Z,18.97
2023-08-15T02:02:46.418Z,18.98
2023-08-15T02:03:46.387Z,19.00
2023-08-15T02:04:46.278Z,18.98
2023-08-15T02:05:46.326Z,18.97
2023-08-15T02:06:46.267Z,18.96
2023-08-15T02:07:46.268Z,18.93
2023-08-15T02:08:46.243Z,18.93
2023-08-15T02:09:46.247Z,18.91
2023-08-15T02:10:46.301Z,18.89
2023-08-15T02:11:46.236Z,18.91
2023-08-15T02:12:46.194Z,18.93
2023-08-15T02:13:46.226Z,18.93
2023-08-15T02:14:46.189Z,18.94
2023-08-15T02:15:46.233Z,18.94
2023-08-15T02:16:46.179Z,18.96
2023-08-15T02:17:46.204Z,19.04
2023-08-15T02:18:46.133Z,19.08
2023-08-15T02:19:46.123Z,19.08
2023-08-15T02:20:46.131Z,19.12
2023-08-15T02:21:46.110Z,19.12
2023-08-15T02:22:46.121Z,19.12
2023-08-15T02:23:46.118Z,19.15
2023-08-15T02:24:46.062Z,19.15
2023-08-15T02:25:46.121Z,19.15
2023-08-15T02:26:46.051Z,19.15
2023-08-15T02:27:46.072Z,19.16
2023-08-15T02:28:46.048Z,19.17
2023-08-15T02:29:46.096Z,19.16
2023-08-15T02:30:46.018Z,19.19
2023-08-15T02:31:46.010Z,19.19
2023-08-15T02:32:46.008Z,19.20
2023-08-15T02:33:46.012Z,19.20
2023-08-15T02:34:45.989Z,19.20
2023-08-15T02:35:45.965Z,19.24
2023-08-15T02:36:45.999Z,19.27
2023-08-15T02:37:45.944Z,19.30
2023-08-15T02:38:45.977Z,19.34
2023-08-15T02:39:45.914Z,19.35
2023-08-15T02:40:45.941Z,19.35
2023-08-15T02:41:45.925Z,19.39
2023-08-15T02:42:45.889Z,19.41
2023-08-15T02:43:45.909Z,19.39
2023-08-15T02:44:45.860Z,19.39
2023-08-15T02:45:45.858Z,19.41
2023-08-15T02:46:45.936Z,19.41
2023-08-15T02:47:45.867Z,19.42
2023-08-15T02:48:45.815Z,19.42
2023-08-15T02:49:45.842Z,19.42
2023-08-15T02:50:45.797Z,19.44
2023-08-15T02:51:45.836Z,19.45
2023-08-15T02:52:45.797Z,19.44
2023-08-15T02:53:45.789Z,19.44
2023-08-15T02:54:45.775Z,19.44
2023-08-15T02:55:45.749Z,19.45
2023-08-15T02:56:45.738Z,19.49
2023-08-15T02:57:45.735Z,19.47
2023-08-15T02:58:45.748Z,19.47
2023-08-15T02:59:45.718Z,19.49
2023-08-15T03:00:45.718Z,19.50
2023-08-15T03:01:45.709Z,19.47
2023-08-15T03:02:45.792Z,19.50
2023-08-15T03:03:45.666Z,19.50
2023-08-15T03:04:45.680Z,19.53
2023-08-15T03:05:45.662Z,19.53
2023-08-15T03:06:45.630Z,19.56
2023-08-15T03:07:45.629Z,19.56
2023-08-15T03:08:45.603Z,19.59
2023-08-15T03:09:45.609Z,19.62
2023-08-15T03:10:45.629Z,19.62
2023-08-15T03:11:45.577Z,19.64
2023-08-15T03:12:45.562Z,19.67
2023-08-15T03:13:45.552Z,19.67
2023-08-15T03:14:45.559Z,19.67
2023-08-15T03:15:45.576Z,19.67
2023-08-15T03:16:45.548Z,19.70
2023-08-15T03:17:45.547Z,19.70
2023-08-15T03:18:45.511Z,19.71
2023-08-15T03:19:45.505Z,19.72
2023-08-15T03:20:45.507Z,19.74
2023-08-15T03:21:45.547Z,19.77
2023-08-15T03:22:45.459Z,19.77
2023-08-15T03:23:45.458Z,19.79
2023-08-15T03:24:45.456Z,19.81
2023-08-15T03:25:45.451Z,19.79
2023-08-15T03:26:45.420Z,19.81
2023-08-15T03:27:45.448Z,19.82
2023-08-15T03:28:45.399Z,19.86
2023-08-15T03:29:45.394Z,19.86
2023-08-15T03:30:45.417Z,19.89
2023-08-15T03:31:45.448Z,19.90
2023-08-15T03:32:45.428Z,19.90
2023-08-15T03:33:45.364Z,19.90
2023-08-15T03:34:45.340Z,19.90
2023-08-15T03:35:45.346Z,19.92
2023-08-15T03:36:45.316Z,19.92
2023-08-15T03:37:45.337Z,19.93
2023-08-15T03:38:45.297Z,19.94
2023-08-15T03:39:45.298Z,19.97
2023-08-15T03:40:45.279Z,19.99
2023-08-15T03:41:45.406Z,20.00
2023-08-15T03:42:45.259Z,20.02
2023-08-15T03:43:45.253Z,20.02
2023-08-15T03:44:45.225Z,20.04
2023-08-15T03:45:45.258Z,20.04
2023-08-15T03:46:45.289Z,20.07
2023-08-15T03:47:45.273Z,20.09
2023-08-15T03:48:45.178Z,20.09
2023-08-15T03:49:45.180Z,20.11
2023-08-15T03:50:45.161Z,20.14
2023-08-15T03:51:47.456Z,20.12
2023-08-15T03:52:45.152Z,20.12
2023-08-15T03:53:45.137Z,20.14
2023-08-15T03:54:45.125Z,20.14
2023-08-15T03:55:45.123Z,20.15
2023-08-15T03:56:45.101Z,20.17
2023-08-15T03:57:45.113Z,20.18
2023-08-15T03:58:45.032Z,20.19
2023-08-15T03:59:45.072Z,20.19
2023-08-15T04:00:45.065Z,20.22
2023-08-15T04:01:45.023Z,20.25
2023-08-15T04:02:45.064Z,20.30
2023-08-15T04:03:45.015Z,20.30
2023-08-15T04:04:45.007Z,20.34
2023-08-15T04:05:44.968Z,20.36
2023-08-15T04:06:44.960Z,20.37
2023-08-15T04:07:44.950Z,20.42
2023-08-15T04:08:44.912Z,20.44
2023-08-15T04:09:44.910Z,20.44
2023-08-15T04:10:44.904Z,20.44
2023-08-15T04:11:44.875Z,20.46
2023-08-15T04:12:44.890Z,20.46
2023-08-15T04:13:44.866Z,20.46
2023-08-15T04:14:44.862Z,20.44
2023-08-15T04:15:44.886Z,20.44
2023-08-15T04:16:45.735Z,20.44
2023-08-15T04:17:44.883Z,20.46
2023-08-15T04:18:44.816Z,20.44
2023-08-15T04:19:44.786Z,20.46
2023-08-15T04:20:44.802Z,20.46
2023-08-15T04:21:44.841Z,20.44
2023-08-15T04:22:44.789Z,20.46
2023-08-15T04:23:44.756Z,20.46
2023-08-15T04:24:44.741Z,20.48
2023-08-15T04:25:44.736Z,20.48
2023-08-15T04:26:44.737Z,20.49
2023-08-15T04:27:44.745Z,20.50
2023-08-15T04:28:44.720Z,20.52
2023-08-15T04:29:44.723Z,20.52
2023-08-15T04:30:44.685Z,20.53
2023-08-15T04:31:44.702Z,20.56
2023-08-15T04:32:44.699Z,20.55
2023-08-15T04:33:44.657Z,20.58
2023-08-15T04:34:44.666Z,20.56
2023-08-15T04:35:44.645Z,20.58
2023-08-15T04:36:44.626Z,20.61
2023-08-15T04:37:44.635Z,20.64
2023-08-15T04:38:44.600Z,20.65
2023-08-15T04:39:44.572Z,20.67
2023-08-15T04:40:44.707Z,20.68
2023-08-15T04:41:44.620Z,20.67
2023-08-15T04:42:44.540Z,20.67
2023-08-15T04:43:44.564Z,20.70
2023-08-15T04:44:44.542Z,20.70
2023-08-15T04:45:45.096Z,20.73
2023-08-15T04:46:44.514Z,20.73
2023-08-15T04:47:44.558Z,20.73
2023-08-15T04:48:44.513Z,20.73
2023-08-15T04:49:44.476Z,20.73
2023-08-15T04:50:44.494Z,20.74
2023-08-15T04:51:44.461Z,20.73
2023-08-15T04:52:44.488Z,20.73
2023-08-15T04:53:44.442Z,20.74
2023-08-15T04:54:44.448Z,20.73
2023-08-15T04:55:44.427Z,20.74
2023-08-15T04:56:44.385Z,20.74
2023-08-15T04:57:44.383Z,20.73
2023-08-15T04:58:44.387Z,20.71
2023-08-15T04:59:44.396Z,20.71
2023-08-15T05:00:44.347Z,20.71
2023-08-15T05:01:44.390Z,20.71
2023-08-15T05:02:44.393Z,20.70
2023-08-15T05:03:44.355Z,20.68
2023-08-15T05:04:44.310Z,20.68
2023-08-15T05:05:44.377Z,20.67
2023-08-15T05:06:44.304Z,20.67
2023-08-15T05:07:44.318Z,20.65
2023-08-15T05:08:44.310Z,20.67
2023-08-15T05:09:44.253Z,20.67
2023-08-15T05:10:44.274Z,20.67
2023-08-15T05:11:44.230Z,20.67
2023-08-15T05:12:44.221Z,20.65
2023-08-15T05:13:44.231Z,20.65
2023-08-15T05:14:44.221Z,20.67
2023-08-15T05:15:44.236Z,20.67
2023-08-15T05:16:44.188Z,20.71
2023-08-15T05:17:44.208Z,20.71
2023-08-15T05:18:44.182Z,20.74
2023-08-15T05:19:44.159Z,20.79
2023-08-15T05:20:44.136Z,20.80
2023-08-15T05:21:44.166Z,20.82
2023-08-15T05:22:44.144Z,20.83
2023-08-15T05:23:44.134Z,20.85
2023-08-15T05:24:44.100Z,20.86
2023-08-15T05:25:44.105Z,20.86
2023-08-15T05:26:44.079Z,20.86
2023-08-15T05:27:44.062Z,20.86
2023-08-15T05:28:46.916Z,20.86
2023-08-15T05:29:44.341Z,20.88
2023-08-15T05:30:44.041Z,20.90
2023-08-15T05:31:44.076Z,20.90
2023-08-15T05:32:44.034Z,20.90
2023-08-15T05:33:44.005Z,20.89
2023-08-15T05:34:44.299Z,20.89
2023-08-15T05:35:44.026Z,20.90
2023-08-15T05:36:44.009Z,20.90
2023-08-15T05:37:43.962Z,20.93
2023-08-15T05:38:43.947Z,20.93
2023-08-15T05:39:43.942Z,20.92
2023-08-15T05:40:43.963Z,20.90
2023-08-15T05:41:43.923Z,20.92
2023-08-15T05:42:43.931Z,20.92
2023-08-15T05:43:43.920Z,20.90
2023-08-15T05:44:43.899Z,20.89
2023-08-15T05:45:43.889Z,20.90
2023-08-15T05:46:43.903Z,20.90
2023-08-15T05:47:43.870Z,20.90
2023-08-15T05:48:43.847Z,20.90
2023-08-15T05:49:43.846Z,20.92
2023-08-15T05:50:43.861Z,20.90
2023-08-15T05:51:43.834Z,20.92
2023-08-15T05:52:43.959Z,20.92
2023-08-15T05:53:43.839Z,20.93
2023-08-15T05:54:43.788Z,20.93
2023-08-15T05:55:43.782Z,20.97
2023-08-15T05:56:43.776Z,20.98
2023-08-15T05:57:43.756Z,21.00
2023-08-15T05:58:43.763Z,21.00
2023-08-15T05:59:43.750Z,21.03
2023-08-15T06:00:43.739Z,21.03
2023-08-15T06:01:43.701Z,21.03
2023-08-15T06:02:43.773Z,21.04
2023-08-15T06:03:52.560Z,21.07
2023-08-15T06:04:43.716Z,21.07
2023-08-15T06:05:43.756Z,21.10
2023-08-15T06:06:43.697Z,21.13
2023-08-15T06:07:43.677Z,21.14
2023-08-15T06:08:43.648Z,21.18
2023-08-15T06:09:43.636Z,21.18
2023-08-15T06:10:43.611Z,21.19
2023-08-15T06:11:43.742Z,21.20
2023-08-15T06:12:43.625Z,21.20
2023-08-15T06:13:43.588Z,21.20
2023-08-15T06:14:43.589Z,21.23
2023-08-15T06:15:43.574Z,21.23
2023-08-15T06:16:43.608Z,21.22
2023-08-15T06:17:43.566Z,21.25
2023-08-15T06:18:43.597Z,21.22
2023-08-15T06:19:43.518Z,21.23
2023-08-15T06:20:43.510Z,21.22
2023-08-15T06:21:43.503Z,21.23
2023-08-15T06:22:43.510Z,21.22
2023-08-15T06:23:43.554Z,21.22
2023-08-15T06:24:43.498Z,21.22
2023-08-15T06:25:43.464Z,21.20
2023-08-15T06:26:43.573Z,21.20
2023-08-15T06:27:43.483Z,21.19
2023-08-15T06:28:43.423Z,21.20
2023-08-15T06:29:43.416Z,21.23
2023-08-15T06:30:43.451Z,21.25
2023-08-15T06:31:43.399Z,21.30
2023-08-15T06:32:43.418Z,21.28
2023-08-15T06:33:43.386Z,21.29
2023-08-15T06:34:43.359Z,21.35
2023-08-15T06:35:43.349Z,21.41
2023-08-15T06:36:43.344Z,21.37
2023-08-15T06:37:43.334Z,21.40
2023-08-15T06:38:43.351Z,21.41
2023-08-15T06:39:43.310Z,21.40
2023-08-15T06:40:43.301Z,21.43
2023-08-15T06:41:43.284Z,21.37
2023-08-15T06:42:43.282Z,21.30
2023-08-15T06:43:43.291Z,21.32
2023-08-15T06:44:43.311Z,21.28
2023-08-15T06:45:43.301Z,21.22
2023-08-15T06:47:40.422Z,21.20
2023-08-15T06:48:41.393Z,21.16
2023-08-15T06:49:41.372Z,21.16
2023-08-15T06:50:41.394Z,21.14
2023-08-15T06:51:41.339Z,21.16
2023-08-15T06:52:41.359Z,21.13
2023-08-15T06:53:41.361Z,21.26
2023-08-15T06:54:41.349Z,21.28
2023-08-15T06:55:41.316Z,21.30
2023-08-15T06:56:41.289Z,21.37
2023-08-15T06:57:41.285Z,21.40
2023-08-15T06:58:41.266Z,21.37
2023-08-15T06:59:41.359Z,21.38
2023-08-15T07:00:41.307Z,21.38
2023-08-15T07:01:41.255Z,21.37
2023-08-15T07:02:41.335Z,21.35
2023-08-15T07:03:41.283Z,21.38
2023-08-15T07:04:41.189Z,21.50
2023-08-15T07:05:41.214Z,21.62
2023-08-15T07:06:41.166Z,21.67
2023-08-15T07:07:41.191Z,21.73
2023-08-15T07:08:41.178Z,21.67
2023-08-15T07:09:41.208Z,21.63
2023-08-15T07:10:41.144Z,21.60
2023-08-15T07:11:41.214Z,21.63
2023-08-15T07:12:41.119Z,21.67
2023-08-15T07:13:41.120Z,21.67
2023-08-15T07:14:41.102Z,21.71
2023-08-15T07:15:41.081Z,21.74
2023-08-15T07:16:41.113Z,21.81
2023-08-15T07:17:41.077Z,21.82
2023-08-15T07:18:41.054Z,21.91
2023-08-15T07:19:41.048Z,21.94
2023-08-15T07:20:41.020Z,21.93
2023-08-15T07:21:41.064Z,22.06
2023-08-15T07:22:40.993Z,22.07
2023-08-15T07:23:41.023Z,22.15
2023-08-15T07:24:40.992Z,22.18
2023-08-15T07:25:40.992Z,22.22
2023-08-15T07:26:40.997Z,22.19
2023-08-15T07:27:40.966Z,22.18
2023-08-15T07:28:40.945Z,22.11
2023-08-15T07:29:40.955Z,22.03
2023-08-15T07:30:40.927Z,21.96
2023-08-15T07:31:40.964Z,21.93
2023-08-15T07:32:40.986Z,21.98
2023-08-15T07:33:40.910Z,21.94
2023-08-15T07:34:40.914Z,21.84
2023-08-15T07:35:40.869Z,21.77
2023-08-15T07:36:40.856Z,21.74
2023-08-15T07:37:40.907Z,21.85
2023-08-15T07:38:40.851Z,21.98
2023-08-15T07:39:40.848Z,22.12
2023-08-15T07:40:40.843Z,22.19
2023-08-15T07:41:40.812Z,22.31
2023-08-15T07:42:40.801Z,22.36
2023-08-15T07:43:40.875Z,22.40
2023-08-15T07:44:40.773Z,22.40
2023-08-15T07:45:40.823Z,22.41
2023-08-15T07:46:41.056Z,22.37
2023-08-15T07:47:40.815Z,22.49
2023-08-15T07:48:40.735Z,22.67
2023-08-15T07:49:40.830Z,22.64
2023-08-15T07:50:40.719Z,22.62
2023-08-15T07:51:40.713Z,22.46
2023-08-15T07:52:40.746Z,22.34
2023-08-15T07:53:40.685Z,22.33
2023-08-15T07:54:40.666Z,22.23
2023-08-15T07:55:40.707Z,22.23
2023-08-15T07:56:40.674Z,22.23
2023-08-15T07:57:40.663Z,22.27
2023-08-15T07:58:40.696Z,22.30
2023-08-15T07:59:40.641Z,22.28
2023-08-15T08:00:40.788Z,22.30
2023-08-15T08:01:40.883Z,22.30
2023-08-15T08:02:40.619Z,22.43
2023-08-15T08:03:40.587Z,22.49
2023-08-15T08:04:40.669Z,22.51
2023-08-15T08:05:40.628Z,22.46
2023-08-15T08:06:41.459Z,22.46
2023-08-15T08:07:40.600Z,22.48
2023-08-15T08:08:40.607Z,22.49
2023-08-15T08:09:40.589Z,22.56
2023-08-15T08:10:40.599Z,22.74
2023-08-15T08:11:40.496Z,22.92
2023-08-15T08:12:40.487Z,23.06
2023-08-15T08:13:40.515Z,23.08
2023-08-15T08:14:48.790Z,22.96
2023-08-15T08:15:40.477Z,22.95
2023-08-15T08:16:40.456Z,22.93
2023-08-15T08:17:40.521Z,22.91
2023-08-15T08:18:40.434Z,22.85
2023-08-15T08:19:40.418Z,22.95
2023-08-15T08:20:40.404Z,22.99
2023-08-15T08:21:40.401Z,22.98
2023-08-15T08:22:40.384Z,23.11
2023-08-15T08:23:40.403Z,23.22
2023-08-15T08:24:40.398Z,23.33
2023-08-15T08:25:40.409Z,23.45
2023-08-15T08:26:40.352Z,23.34
2023-08-15T08:27:40.336Z,23.46
2023-08-15T08:28:40.332Z,23.60
2023-08-15T08:29:40.354Z,23.76
2023-08-15T08:30:40.321Z,23.85
2023-08-15T08:31:40.341Z,23.86
2023-08-15T08:32:40.311Z,23.88
2023-08-15T08:33:40.314Z,23.84
2023-08-15T08:34:40.284Z,23.85
2023-08-15T08:35:40.264Z,23.74
2023-08-15T08:36:40.252Z,23.73
2023-08-15T08:37:40.327Z,23.61
2023-08-15T08:38:40.223Z,23.59
2023-08-15T08:39:40.223Z,23.59
2023-08-15T08:40:40.210Z,23.69
2023-08-15T08:41:40.218Z,23.63
2023-08-15T08:42:40.169Z,23.70
2023-08-15T08:43:40.170Z,23.79
2023-08-15T08:44:40.351Z,23.94
2023-08-15T08:45:40.167Z,24.06
2023-08-15T08:46:40.132Z,24.11
2023-08-15T08:47:40.174Z,24.15
2023-08-15T08:48:40.120Z,24.15
2023-08-15T08:49:40.095Z,24.16
2023-08-15T08:50:40.117Z,24.10
2023-08-15T08:51:40.090Z,23.96
2023-08-15T08:52:40.077Z,23.91
2023-08-15T08:53:40.067Z,23.92
2023-08-15T08:54:55.916Z,23.97
2023-08-15T08:55:40.124Z,23.97
2023-08-15T08:56:40.035Z,24.10
2023-08-15T08:57:40.028Z,24.18
2023-08-15T08:58:40.007Z,24.08
2023-08-15T08:59:40.247Z,24.04
2023-08-15T09:00:40.029Z,24.08
2023-08-15T09:01:40.022Z,24.18
2023-08-15T09:02:40.083Z,24.21
2023-08-15T09:03:40.033Z,24.10
2023-08-15T09:04:39.975Z,24.16
2023-08-15T09:05:39.943Z,24.08
2023-08-15T09:06:39.934Z,24.07
2023-08-15T09:07:39.916Z,24.11
2023-08-15T09:08:39.910Z,24.15
2023-08-15T09:09:39.917Z,24.15
2023-08-15T09:10:39.900Z,24.31
2023-08-15T09:11:39.878Z,24.44
2023-08-15T09:12:39.969Z,24.59
2023-08-15T09:13:39.873Z,24.74
2023-08-15T09:14:39.860Z,24.79
2023-08-15T09:15:40.029Z,24.90
2023-08-15T09:16:39.838Z,24.82
2023-08-15T09:17:40.090Z,24.56
2023-08-15T09:18:39.821Z,24.63
2023-08-15T09:19:39.810Z,24.62
2023-08-15T09:20:39.820Z,24.74
2023-08-15T09:21:39.772Z,24.74
2023-08-15T09:22:39.797Z,24.82
2023-08-15T09:23:39.756Z,24.82
2023-08-15T09:24:39.753Z,24.84
2023-08-15T09:25:39.729Z,24.90
2023-08-15T09:26:39.772Z,25.01
2023-08-15T09:27:39.736Z,24.82
2023-08-15T09:28:39.746Z,24.76
2023-08-15T09:29:39.691Z,24.79
2023-08-15T09:30:39.676Z,24.89
2023-08-15T09:31:39.814Z,24.79
2023-08-15T09:32:39.704Z,24.82
2023-08-15T09:33:39.646Z,24.82
2023-08-15T09:34:39.648Z,24.85
2023-08-15T09:35:49.105Z,24.79
2023-08-15T09:36:39.635Z,24.91
2023-08-15T09:37:39.622Z,24.89
2023-08-15T09:38:39.601Z,24.90
2023-08-15T09:39:39.583Z,25.00
2023-08-15T09:40:39.592Z,25.15
2023-08-15T09:41:39.573Z,25.14
2023-08-15T09:42:39.594Z,25.18
2023-08-15T09:43:39.540Z,25.06
2023-08-15T09:44:39.530Z,25.12
2023-08-15T09:45:39.519Z,25.21
2023-08-15T09:46:39.531Z,25.12
2023-08-15T09:47:39.584Z,25.23
2023-08-15T09:48:39.504Z,25.23
2023-08-15T09:49:39.480Z,25.30
2023-08-15T09:50:39.512Z,25.51
2023-08-15T09:51:39.453Z,25.59
2023-08-15T09:52:39.436Z,25.61
2023-08-15T09:53:39.465Z,25.66
2023-08-15T09:54:39.474Z,25.77
2023-08-15T09:55:39.433Z,25.70
2023-08-15T09:56:39.402Z,25.82
2023-08-15T09:57:39.393Z,25.85
2023-08-15T09:58:39.390Z,25.67
2023-08-15T09:59:39.373Z,25.67
2023-08-15T10:00:39.370Z,25.67
2023-08-15T10:01:39.435Z,25.74
2023-08-15T10:02:39.347Z,25.90
2023-08-15T10:03:39.436Z,25.98
2023-08-15T10:04:39.360Z,26.03
2023-08-15T10:05:39.344Z,26.07
2023-08-15T10:06:39.307Z,26.23
2023-08-15T10:07:39.302Z,26.41
2023-08-15T10:08:39.296Z,26.56
2023-08-15T10:09:39.287Z,26.65
2023-08-15T10:10:39.292Z,26.70
2023-08-15T10:11:39.272Z,26.75
2023-08-15T10:12:39.235Z,26.73
2023-08-15T10:13:39.256Z,26.83
2023-08-15T10:14:39.227Z,26.89
2023-08-15T10:15:39.229Z,26.76
2023-08-15T10:16:39.342Z,26.56
2023-08-15T10:17:39.418Z,26.39
2023-08-15T10:18:39.350Z,26.19
2023-08-15T10:19:39.162Z,26.27
2023-08-15T10:20:39.177Z,26.31
2023-08-15T10:21:39.166Z,26.31
2023-08-15T10:22:39.171Z,26.24
2023-08-15T10:23:39.144Z,26.36
2023-08-15T10:24:39.229Z,26.38
2023-08-15T10:25:39.156Z,26.45
2023-08-15T10:26:39.121Z,26.33
2023-08-15T10:27:39.128Z,26.10
2023-08-15T10:28:39.110Z,26.24
2023-08-15T10:29:39.080Z,26.42
2023-08-15T10:30:39.106Z,26.56
2023-08-15T10:31:39.072Z,26.43
2023-08-15T10:32:39.131Z,26.57
2023-08-15T10:33:39.079Z,26.45
2023-08-15T10:34:39.386Z,26.05
2023-08-15T10:35:39.020Z,25.83
2023-08-15T10:36:39.023Z,25.82
2023-08-15T10:37:39.040Z,26.05
2023-08-15T10:38:39.014Z,26.01
2023-08-15T10:39:39.000Z,25.75
2023-08-15T10:40:38.982Z,26.00
2023-08-15T10:41:38.962Z,26.12
2023-08-15T10:42:38.974Z,26.10
2023-08-15T10:43:39.050Z,26.24
2023-08-15T10:44:38.931Z,26.41
2023-08-15T10:45:38.932Z,26.36
2023-08-15T10:46:38.949Z,26.27
2023-08-15T10:47:39.153Z,26.12
2023-08-15T10:48:44.169Z,26.39
2023-08-15T10:49:39.084Z,26.67
2023-08-15T10:50:38.910Z,26.86
2023-08-15T10:51:38.876Z,27.12
2023-08-15T10:52:38.903Z,27.16
2023-08-15T10:53:38.851Z,27.08
2023-08-15T10:54:38.838Z,27.19
2023-08-15T10:55:38.834Z,27.25
2023-08-15T10:56:38.847Z,27.57
2023-08-15T10:57:38.804Z,28.17
2023-08-15T10:58:41.238Z,28.69
2023-08-15T10:59:38.807Z,28.91
2023-08-15T11:00:38.856Z,28.77
2023-08-15T11:01:39.063Z,28.86
2023-08-15T11:02:38.851Z,28.71
2023-08-15T11:03:38.803Z,27.88
2023-08-15T11:04:40.622Z,27.93
2023-08-15T11:05:38.766Z,28.32
2023-08-15T11:06:38.728Z,28.52
2023-08-15T11:07:38.730Z,28.71
2023-08-15T11:08:38.717Z,28.79
2023-08-15T11:09:38.742Z,29.00
2023-08-15T11:10:40.393Z,29.00
2023-08-15T11:11:38.663Z,28.83
2023-08-15T11:12:38.655Z,29.15
2023-08-15T11:13:38.642Z,29.27
2023-08-15T11:14:38.638Z,29.62
2023-08-15T11:15:38.623Z,29.65
2023-08-15T11:16:38.663Z,29.19
2023-08-15T11:17:38.623Z,28.75
2023-08-15T11:18:38.595Z,29.17
2023-08-15T11:19:38.584Z,28.68
2023-08-15T11:20:38.572Z,28.30
2023-08-15T11:21:38.584Z,28.06
2023-08-15T11:22:38.552Z,27.85
2023-08-15T11:23:38.536Z,27.50
2023-08-15T11:24:38.578Z,27.13
2023-08-15T11:25:38.515Z,26.76
2023-08-15T11:26:38.524Z,26.58
2023-08-15T11:27:38.483Z,26.42
2023-08-15T11:28:38.474Z,26.42
2023-08-15T11:29:38.509Z,27.32
2023-08-15T11:30:38.513Z,28.24
2023-08-15T11:31:38.506Z,29.03
2023-08-15T11:32:38.576Z,29.44
2023-08-15T11:33:38.432Z,28.94
2023-08-15T11:34:38.421Z,28.47
2023-08-15T11:35:38.419Z,28.09
2023-08-15T11:36:38.398Z,27.73
2023-08-15T11:37:38.381Z,27.40
2023-08-15T11:38:38.378Z,27.17
2023-08-15T11:39:38.384Z,27.35
2023-08-15T11:40:38.372Z,27.82
2023-08-15T11:41:38.344Z,28.53
2023-08-15T11:42:38.344Z,29.10
2023-08-15T11:43:38.335Z,29.28
2023-08-15T11:44:38.330Z,29.19
2023-08-15T11:45:38.339Z,28.86
2023-08-15T11:46:53.017Z,28.90
2023-08-15T11:47:38.298Z,29.04
2023-08-15T11:48:38.316Z,29.34
2023-08-15T11:49:46.285Z,29.12
2023-08-15T11:50:44.796Z,29.37
2023-08-15T11:51:38.254Z,29.28
2023-08-15T11:52:38.227Z,29.04
2023-08-15T11:53:38.236Z,28.49
2023-08-15T11:54:38.254Z,27.82
2023-08-15T11:55:38.213Z,27.57
2023-08-15T11:56:38.194Z,27.32
2023-08-15T11:57:38.213Z,27.40
2023-08-15T11:58:38.172Z,28.03
2023-08-15T11:59:38.159Z,28.72
2023-08-15T12:00:38.168Z,28.94
2023-08-15T12:01:38.188Z,28.96
2023-08-15T12:02:38.205Z,29.06
2023-08-15T12:03:38.136Z,29.37
2023-08-15T12:04:38.107Z,29.56
2023-08-15T12:05:38.096Z,29.83
2023-08-15T12:06:38.431Z,29.74
2023-08-15T12:07:38.082Z,29.78
2023-08-15T12:08:38.110Z,29.65
2023-08-15T12:09:38.078Z,29.17
2023-08-15T12:10:39.619Z,28.71
2023-08-15T12:11:38.058Z,28.50
2023-08-15T12:12:38.043Z,28.24
2023-08-15T12:13:38.025Z,28.35
2023-08-15T12:14:49.291Z,28.57
2023-08-15T12:15:38.142Z,28.62
2023-08-15T12:16:38.376Z,28.64
2023-08-15T12:17:37.997Z,28.65
2023-08-15T12:18:37.997Z,29.47
2023-08-15T12:19:37.966Z,29.21
2023-08-15T12:20:37.950Z,29.03
2023-08-15T12:21:37.991Z,29.27
2023-08-15T12:22:37.946Z,29.29
2023-08-15T12:23:37.918Z,29.22
2023-08-15T12:24:37.908Z,29.12
2023-08-15T12:25:37.899Z,29.76
2023-08-15T12:26:37.917Z,30.20
2023-08-15T12:27:37.891Z,30.39
2023-08-15T12:28:37.862Z,30.14
2023-08-15T12:30:11.010Z,29.71
2023-08-15T12:30:37.856Z,29.76
2023-08-15T12:31:38.006Z,29.36
2023-08-15T12:32:37.866Z,28.93
2023-08-15T12:34:37.848Z,28.20
2023-08-15T12:35:37.779Z,27.98
2023-08-15T12:36:37.782Z,27.57
2023-08-15T12:37:37.805Z,27.38
2023-08-15T12:38:37.766Z,27.35
2023-08-15T12:39:37.747Z,27.12
2023-08-15T12:40:37.767Z,27.01
2023-08-15T12:41:37.768Z,26.98
2023-08-15T12:42:37.741Z,26.89
2023-08-15T12:43:37.812Z,26.67
2023-08-15T12:44:37.710Z,26.52
2023-08-15T12:45:37.743Z,26.52
2023-08-15T12:46:37.712Z,26.42
2023-08-15T12:47:37.730Z,26.30
2023-08-15T12:48:37.693Z,26.56
2023-08-15T12:49:37.659Z,26.60
2023-08-15T12:50:37.664Z,26.63
2023-08-15T12:51:37.666Z,26.70
2023-08-15T12:52:37.627Z,26.85
2023-08-15T12:53:37.650Z,27.79
2023-08-15T12:54:37.631Z,28.54